sensor_id;sensor_type;location;lat;lon;timestamp;P1;durP1;ratioP1;P2;durP2;ratioP2
69005;SDS011;56061;51.748;19.620;2022-11-27T00:01:25;66.60;;;26.20;;
69005;SDS011;56061;51.748;19.620;2022-11-27T00:03:54;74.40;;;26.30;;
69005;SDS011;56061;51.748;19.620;2022-11-27T00:06:24;71.40;;;26.80;;
69005;SDS011;56061;51.748;19.620;2022-11-27T00:08:55;70.40;;;27.20;;
69005;SDS011;56061;51.748;19.620;2022-11-27T00:11:25;65.00;;;23.60;;
69005;SDS011;56061;51.748;19.620;2022-11-27T00:13:54;67.40;;;23.80;;
69005;SDS011;56061;51.748;19.620;2022-11-27T00:16:22;97.10;;;31.30;;
69005;SDS011;56061;51.748;19.620;2022-11-27T00:18:50;122.30;;;35.10;;
69005;SDS011;56061;51.748;19.620;2022-11-27T00:21:22;152.10;;;39.30;;
69005;SDS011;56061;51.748;19.620;2022-11-27T00:23:52;118.60;;;34.60;;
69005;SDS011;56061;51.748;19.620;2022-11-27T00:26:20;127.30;;;35.20;;
69005;SDS011;56061;51.748;19.620;2022-11-27T00:28:48;92.40;;;29.60;;
69005;SDS011;56061;51.748;19.620;2022-11-27T00:31:20;79.20;;;27.10;;
69005;SDS011;56061;51.748;19.620;2022-11-27T00:33:55;79.90;;;27.90;;
69005;SDS011;56061;51.748;19.620;2022-11-27T00:36:23;70.90;;;25.60;;
69005;SDS011;56061;51.748;19.620;2022-11-27T00:38:50;68.90;;;25.40;;
69005;SDS011;56061;51.748;19.620;2022-11-27T00:41:20;74.20;;;26.40;;
69005;SDS011;56061;51.748;19.620;2022-11-27T00:43:49;73.50;;;26.20;;
69005;SDS011;56061;51.748;19.620;2022-11-27T00:46:21;65.60;;;23.60;;
69005;SDS011;56061;51.748;19.620;2022-11-27T00:48:56;67.10;;;24.40;;
69005;SDS011;56061;51.748;19.620;2022-11-27T00:51:24;70.50;;;29.40;;
69005;SDS011;56061;51.748;19.620;2022-11-27T00:53:51;73.50;;;28.10;;
69005;SDS011;56061;51.748;19.620;2022-11-27T00:56:24;63.30;;;25.40;;
69005;SDS011;56061;51.748;19.620;2022-11-27T00:58:52;68.20;;;25.40;;
69005;SDS011;56061;51.748;19.620;2022-11-27T01:01:24;68.20;;;25.30;;
69005;SDS011;56061;51.748;19.620;2022-11-27T01:04:04;80.90;;;26.80;;
69005;SDS011;56061;51.748;19.620;2022-11-27T01:06:32;70.00;;;25.00;;
69005;SDS011;56061;51.748;19.620;2022-11-27T01:09:00;62.30;;;23.00;;
69005;SDS011;56061;51.748;19.620;2022-11-27T01:11:29;66.50;;;23.40;;
69005;SDS011;56061;51.748;19.620;2022-11-27T01:14:00;70.70;;;26.80;;
69005;SDS011;56061;51.748;19.620;2022-11-27T01:16:30;111.70;;;34.10;;
69005;SDS011;56061;51.748;19.620;2022-11-27T01:18:59;85.30;;;32.40;;
69005;SDS011;56061;51.748;19.620;2022-11-27T01:21:29;74.60;;;27.40;;
69005;SDS011;56061;51.748;19.620;2022-11-27T01:23:58;66.30;;;24.80;;
69005;SDS011;56061;51.748;19.620;2022-11-27T01:26:26;57.60;;;23.20;;
69005;SDS011;56061;51.748;19.620;2022-11-27T01:28:54;58.50;;;22.80;;
69005;SDS011;56061;51.748;19.620;2022-11-27T01:31:24;58.30;;;23.20;;
69005;SDS011;56061;51.748;19.620;2022-11-27T01:33:55;58.80;;;22.10;;
69005;SDS011;56061;51.748;19.620;2022-11-27T01:36:24;60.60;;;22.60;;
69005;SDS011;56061;51.748;19.620;2022-11-27T01:38:51;52.20;;;21.40;;
69005;SDS011;56061;51.748;19.620;2022-11-27T01:41:23;58.00;;;22.20;;
69005;SDS011;56061;51.748;19.620;2022-11-27T01:43:58;61.60;;;23.50;;
69005;SDS011;56061;51.748;19.620;2022-11-27T01:46:36;65.10;;;22.90;;
69005;SDS011;56061;51.748;19.620;2022-11-27T01:49:21;60.20;;;24.50;;
69005;SDS011;56061;51.748;19.620;2022-11-27T01:52:08;57.30;;;22.70;;
69005;SDS011;56061;51.748;19.620;2022-11-27T01:54:49;57.90;;;21.90;;
69005;SDS011;56061;51.748;19.620;2022-11-27T01:57:30;64.10;;;22.60;;
69005;SDS011;56061;51.748;19.620;2022-11-27T02:00:04;59.90;;;22.60;;
69005;SDS011;56061;51.748;19.620;2022-11-27T02:02:32;59.90;;;22.70;;
69005;SDS011;56061;51.748;19.620;2022-11-27T02:04:58;92.30;;;30.20;;
69005;SDS011;56061;51.748;19.620;2022-11-27T02:07:25;138.00;;;39.00;;
69005;SDS011;56061;51.748;19.620;2022-11-27T02:09:51;98.20;;;33.90;;
69005;SDS011;56061;51.748;19.620;2022-11-27T02:12:33;93.30;;;34.40;;
69005;SDS011;56061;51.748;19.620;2022-11-27T02:15:19;67.50;;;26.40;;
69005;SDS011;56061;51.748;19.620;2022-11-27T02:18:05;66.10;;;24.40;;
69005;SDS011;56061;51.748;19.620;2022-11-27T02:20:49;57.50;;;22.60;;
69005;SDS011;56061;51.748;19.620;2022-11-27T02:23:30;61.60;;;23.90;;
69005;SDS011;56061;51.748;19.620;2022-11-27T02:29:22;61.30;;;22.80;;
69005;SDS011;56061;51.748;19.620;2022-11-27T02:32:12;61.70;;;23.40;;
69005;SDS011;56061;51.748;19.620;2022-11-27T02:34:47;66.20;;;24.40;;
69005;SDS011;56061;51.748;19.620;2022-11-27T02:37:26;64.10;;;24.30;;
69005;SDS011;56061;51.748;19.620;2022-11-27T02:40:18;59.70;;;23.10;;
69005;SDS011;56061;51.748;19.620;2022-11-27T02:42:53;60.30;;;21.70;;
69005;SDS011;56061;51.748;19.620;2022-11-27T02:45:27;62.20;;;23.60;;
69005;SDS011;56061;51.748;19.620;2022-11-27T02:47:59;66.20;;;25.40;;
69005;SDS011;56061;51.748;19.620;2022-11-27T02:50:27;70.80;;;24.80;;
69005;SDS011;56061;51.748;19.620;2022-11-27T02:53:00;61.70;;;24.00;;
69005;SDS011;56061;51.748;19.620;2022-11-27T02:55:33;67.70;;;24.80;;
69005;SDS011;56061;51.748;19.620;2022-11-27T02:58:05;71.00;;;25.60;;
69005;SDS011;56061;51.748;19.620;2022-11-27T03:00:37;66.90;;;25.00;;
69005;SDS011;56061;51.748;19.620;2022-11-27T03:03:07;66.80;;;25.60;;
69005;SDS011;56061;51.748;19.620;2022-11-27T03:05:41;69.70;;;25.50;;
69005;SDS011;56061;51.748;19.620;2022-11-27T03:08:23;57.10;;;24.70;;
69005;SDS011;56061;51.748;19.620;2022-11-27T03:11:07;61.00;;;24.80;;
69005;SDS011;56061;51.748;19.620;2022-11-27T03:13:42;70.80;;;24.20;;
69005;SDS011;56061;51.748;19.620;2022-11-27T03:19:19;66.80;;;26.20;;
69005;SDS011;56061;51.748;19.620;2022-11-27T03:21:52;60.90;;;25.10;;
69005;SDS011;56061;51.748;19.620;2022-11-27T03:24:21;66.90;;;24.00;;
69005;SDS011;56061;51.748;19.620;2022-11-27T03:26:48;73.70;;;26.30;;
69005;SDS011;56061;51.748;19.620;2022-11-27T03:29:28;77.20;;;27.70;;
69005;SDS011;56061;51.748;19.620;2022-11-27T03:32:01;64.20;;;24.80;;
69005;SDS011;56061;51.748;19.620;2022-11-27T03:34:28;68.20;;;26.60;;
69005;SDS011;56061;51.748;19.620;2022-11-27T03:36:54;64.30;;;24.30;;
69005;SDS011;56061;51.748;19.620;2022-11-27T03:39:21;64.20;;;26.80;;
69005;SDS011;56061;51.748;19.620;2022-11-27T03:41:59;85.20;;;30.60;;
69005;SDS011;56061;51.748;19.620;2022-11-27T03:45:00;87.00;;;30.20;;
69005;SDS011;56061;51.748;19.620;2022-11-27T03:50:53;73.70;;;26.10;;
69005;SDS011;56061;51.748;19.620;2022-11-27T03:56:37;66.90;;;27.60;;
69005;SDS011;56061;51.748;19.620;2022-11-27T03:59:26;63.50;;;27.30;;
69005;SDS011;56061;51.748;19.620;2022-11-27T04:01:55;65.30;;;25.60;;
69005;SDS011;56061;51.748;19.620;2022-11-27T04:04:21;65.10;;;25.20;;
69005;SDS011;56061;51.748;19.620;2022-11-27T04:06:48;67.80;;;27.90;;
69005;SDS011;56061;51.748;19.620;2022-11-27T04:09:14;75.20;;;28.00;;
69005;SDS011;56061;51.748;19.620;2022-11-27T04:11:41;68.40;;;27.60;;
69005;SDS011;56061;51.748;19.620;2022-11-27T04:14:07;74.30;;;28.10;;
69005;SDS011;56061;51.748;19.620;2022-11-27T04:16:34;66.50;;;26.10;;
69005;SDS011;56061;51.748;19.620;2022-11-27T04:19:01;69.90;;;27.20;;
69005;SDS011;56061;51.748;19.620;2022-11-27T04:21:27;67.60;;;28.80;;
69005;SDS011;56061;51.748;19.620;2022-11-27T04:23:54;65.90;;;27.10;;
69005;SDS011;56061;51.748;19.620;2022-11-27T04:26:20;66.70;;;29.30;;
69005;SDS011;56061;51.748;19.620;2022-11-27T04:28:47;69.50;;;26.70;;
69005;SDS011;56061;51.748;19.620;2022-11-27T04:31:13;74.00;;;29.30;;
69005;SDS011;56061;51.748;19.620;2022-11-27T04:33:40;72.20;;;27.70;;
69005;SDS011;56061;51.748;19.620;2022-11-27T04:36:06;74.20;;;27.40;;
69005;SDS011;56061;51.748;19.620;2022-11-27T04:38:33;71.40;;;26.70;;
69005;SDS011;56061;51.748;19.620;2022-11-27T04:40:59;66.60;;;26.30;;
69005;SDS011;56061;51.748;19.620;2022-11-27T04:43:26;64.20;;;25.90;;
69005;SDS011;56061;51.748;19.620;2022-11-27T04:45:53;67.80;;;28.80;;
69005;SDS011;56061;51.748;19.620;2022-11-27T04:48:20;64.20;;;26.40;;
69005;SDS011;56061;51.748;19.620;2022-11-27T04:50:46;64.80;;;25.40;;
69005;SDS011;56061;51.748;19.620;2022-11-27T04:53:12;59.90;;;25.70;;
69005;SDS011;56061;51.748;19.620;2022-11-27T04:55:39;64.10;;;26.80;;
69005;SDS011;56061;51.748;19.620;2022-11-27T04:58:05;70.20;;;29.30;;
69005;SDS011;56061;51.748;19.620;2022-11-27T05:00:32;88.50;;;35.80;;
69005;SDS011;56061;51.748;19.620;2022-11-27T05:02:59;98.80;;;38.60;;
69005;SDS011;56061;51.748;19.620;2022-11-27T05:05:25;82.90;;;35.80;;
69005;SDS011;56061;51.748;19.620;2022-11-27T05:07:52;77.20;;;32.90;;
69005;SDS011;56061;51.748;19.620;2022-11-27T05:10:18;78.00;;;33.40;;
69005;SDS011;56061;51.748;19.620;2022-11-27T05:12:44;69.10;;;30.80;;
69005;SDS011;56061;51.748;19.620;2022-11-27T05:15:11;71.00;;;29.80;;
69005;SDS011;56061;51.748;19.620;2022-11-27T05:17:37;56.20;;;25.20;;
69005;SDS011;56061;51.748;19.620;2022-11-27T05:20:05;60.50;;;24.30;;
69005;SDS011;56061;51.748;19.620;2022-11-27T05:22:32;59.90;;;25.00;;
69005;SDS011;56061;51.748;19.620;2022-11-27T05:24:58;64.50;;;24.30;;
69005;SDS011;56061;51.748;19.620;2022-11-27T05:27:24;60.50;;;24.60;;
69005;SDS011;56061;51.748;19.620;2022-11-27T05:29:51;62.80;;;24.00;;
69005;SDS011;56061;51.748;19.620;2022-11-27T05:32:17;70.30;;;27.30;;
69005;SDS011;56061;51.748;19.620;2022-11-27T05:34:44;59.30;;;24.60;;
69005;SDS011;56061;51.748;19.620;2022-11-27T05:37:10;59.80;;;24.20;;
69005;SDS011;56061;51.748;19.620;2022-11-27T05:39:44;66.10;;;26.90;;
69005;SDS011;56061;51.748;19.620;2022-11-27T05:42:10;58.00;;;26.10;;
69005;SDS011;56061;51.748;19.620;2022-11-27T05:44:37;56.70;;;24.20;;
69005;SDS011;56061;51.748;19.620;2022-11-27T05:47:04;56.00;;;24.10;;
69005;SDS011;56061;51.748;19.620;2022-11-27T05:49:30;65.30;;;27.50;;
69005;SDS011;56061;51.748;19.620;2022-11-27T05:51:57;60.60;;;25.60;;
69005;SDS011;56061;51.748;19.620;2022-11-27T05:54:23;60.20;;;27.20;;
69005;SDS011;56061;51.748;19.620;2022-11-27T05:56:50;57.60;;;24.50;;
69005;SDS011;56061;51.748;19.620;2022-11-27T05:59:16;64.80;;;26.10;;
69005;SDS011;56061;51.748;19.620;2022-11-27T06:01:43;62.90;;;25.50;;
69005;SDS011;56061;51.748;19.620;2022-11-27T06:04:09;76.00;;;29.60;;
69005;SDS011;56061;51.748;19.620;2022-11-27T06:06:36;65.20;;;27.10;;
69005;SDS011;56061;51.748;19.620;2022-11-27T06:09:02;58.40;;;25.50;;
69005;SDS011;56061;51.748;19.620;2022-11-27T06:11:36;60.30;;;24.60;;
69005;SDS011;56061;51.748;19.620;2022-11-27T06:14:06;60.30;;;23.00;;
69005;SDS011;56061;51.748;19.620;2022-11-27T06:16:34;61.50;;;23.20;;
69005;SDS011;56061;51.748;19.620;2022-11-27T06:19:00;69.90;;;24.90;;
69005;SDS011;56061;51.748;19.620;2022-11-27T06:21:27;59.10;;;25.30;;
69005;SDS011;56061;51.748;19.620;2022-11-27T06:23:55;65.80;;;26.40;;
69005;SDS011;56061;51.748;19.620;2022-11-27T06:26:27;70.20;;;26.90;;
69005;SDS011;56061;51.748;19.620;2022-11-27T06:28:56;64.00;;;25.20;;
69005;SDS011;56061;51.748;19.620;2022-11-27T06:31:27;65.20;;;26.20;;
69005;SDS011;56061;51.748;19.620;2022-11-27T06:33:56;60.50;;;25.70;;
69005;SDS011;56061;51.748;19.620;2022-11-27T06:36:27;65.30;;;26.10;;
69005;SDS011;56061;51.748;19.620;2022-11-27T06:38:56;65.10;;;27.40;;
69005;SDS011;56061;51.748;19.620;2022-11-27T06:41:24;71.80;;;28.60;;
69005;SDS011;56061;51.748;19.620;2022-11-27T06:43:53;77.60;;;31.40;;
69005;SDS011;56061;51.748;19.620;2022-11-27T06:46:22;69.10;;;28.00;;
69005;SDS011;56061;51.748;19.620;2022-11-27T06:48:50;65.90;;;26.10;;
69005;SDS011;56061;51.748;19.620;2022-11-27T06:51:20;65.20;;;27.10;;
69005;SDS011;56061;51.748;19.620;2022-11-27T06:53:50;66.90;;;27.70;;
69005;SDS011;56061;51.748;19.620;2022-11-27T06:56:20;68.50;;;29.10;;
69005;SDS011;56061;51.748;19.620;2022-11-27T06:58:50;64.80;;;27.80;;
69005;SDS011;56061;51.748;19.620;2022-11-27T07:01:17;64.00;;;26.80;;
69005;SDS011;56061;51.748;19.620;2022-11-27T07:03:45;60.10;;;26.10;;
69005;SDS011;56061;51.748;19.620;2022-11-27T07:06:14;68.20;;;29.10;;
69005;SDS011;56061;51.748;19.620;2022-11-27T07:08:44;69.20;;;29.30;;
69005;SDS011;56061;51.748;19.620;2022-11-27T07:11:22;69.90;;;31.00;;
69005;SDS011;56061;51.748;19.620;2022-11-27T07:13:51;75.20;;;31.90;;
69005;SDS011;56061;51.748;19.620;2022-11-27T07:16:20;74.30;;;30.80;;
69005;SDS011;56061;51.748;19.620;2022-11-27T07:18:49;76.60;;;32.30;;
69005;SDS011;56061;51.748;19.620;2022-11-27T07:21:17;83.50;;;35.90;;
69005;SDS011;56061;51.748;19.620;2022-11-27T07:23:44;78.80;;;35.70;;
69005;SDS011;56061;51.748;19.620;2022-11-27T07:26:20;70.70;;;32.90;;
69005;SDS011;56061;51.748;19.620;2022-11-27T07:28:49;70.30;;;31.20;;
69005;SDS011;56061;51.748;19.620;2022-11-27T07:31:18;61.80;;;27.30;;
69005;SDS011;56061;51.748;19.620;2022-11-27T07:33:47;82.70;;;34.20;;
69005;SDS011;56061;51.748;19.620;2022-11-27T07:36:16;98.90;;;41.50;;
69005;SDS011;56061;51.748;19.620;2022-11-27T07:38:48;74.20;;;33.80;;
69005;SDS011;56061;51.748;19.620;2022-11-27T07:41:15;73.90;;;31.10;;
69005;SDS011;56061;51.748;19.620;2022-11-27T07:43:43;87.50;;;32.60;;
69005;SDS011;56061;51.748;19.620;2022-11-27T07:46:13;70.90;;;27.80;;
69005;SDS011;56061;51.748;19.620;2022-11-27T07:48:42;80.40;;;32.30;;
69005;SDS011;56061;51.748;19.620;2022-11-27T07:51:11;77.20;;;35.70;;
69005;SDS011;56061;51.748;19.620;2022-11-27T07:53:40;68.80;;;33.10;;
69005;SDS011;56061;51.748;19.620;2022-11-27T07:56:09;74.60;;;31.40;;
69005;SDS011;56061;51.748;19.620;2022-11-27T07:58:37;66.00;;;29.40;;
69005;SDS011;56061;51.748;19.620;2022-11-27T08:01:16;89.20;;;35.70;;
69005;SDS011;56061;51.748;19.620;2022-11-27T08:03:44;89.30;;;37.90;;
69005;SDS011;56061;51.748;19.620;2022-11-27T08:06:25;77.20;;;32.40;;
69005;SDS011;56061;51.748;19.620;2022-11-27T08:08:52;75.30;;;32.80;;
69005;SDS011;56061;51.748;19.620;2022-11-27T08:11:27;77.10;;;33.50;;
69005;SDS011;56061;51.748;19.620;2022-11-27T08:13:58;89.60;;;37.30;;
69005;SDS011;56061;51.748;19.620;2022-11-27T08:16:26;80.20;;;35.10;;
69005;SDS011;56061;51.748;19.620;2022-11-27T08:18:53;83.30;;;34.10;;
69005;SDS011;56061;51.748;19.620;2022-11-27T08:21:20;80.40;;;33.30;;
69005;SDS011;56061;51.748;19.620;2022-11-27T08:23:47;61.70;;;27.30;;
69005;SDS011;56061;51.748;19.620;2022-11-27T08:26:14;81.40;;;33.40;;
69005;SDS011;56061;51.748;19.620;2022-11-27T08:28:41;168.30;;;66.30;;
69005;SDS011;56061;51.748;19.620;2022-11-27T08:31:11;135.20;;;54.00;;
69005;SDS011;56061;51.748;19.620;2022-11-27T08:33:39;103.30;;;41.70;;
69005;SDS011;56061;51.748;19.620;2022-11-27T08:36:07;225.50;;;92.30;;
69005;SDS011;56061;51.748;19.620;2022-11-27T08:38:42;189.00;;;82.80;;
69005;SDS011;56061;51.748;19.620;2022-11-27T08:41:09;123.30;;;54.70;;
69005;SDS011;56061;51.748;19.620;2022-11-27T08:43:35;230.90;;;90.10;;
69005;SDS011;56061;51.748;19.620;2022-11-27T08:46:03;216.20;;;87.40;;
69005;SDS011;56061;51.748;19.620;2022-11-27T08:48:31;220.10;;;90.30;;
69005;SDS011;56061;51.748;19.620;2022-11-27T08:50:58;223.60;;;90.70;;
69005;SDS011;56061;51.748;19.620;2022-11-27T08:53:25;183.10;;;75.70;;
69005;SDS011;56061;51.748;19.620;2022-11-27T08:55:51;154.70;;;62.70;;
69005;SDS011;56061;51.748;19.620;2022-11-27T08:58:18;178.40;;;78.90;;
69005;SDS011;56061;51.748;19.620;2022-11-27T09:00:44;137.10;;;62.00;;
69005;SDS011;56061;51.748;19.620;2022-11-27T09:03:11;133.30;;;55.20;;
69005;SDS011;56061;51.748;19.620;2022-11-27T09:05:41;181.00;;;67.20;;
69005;SDS011;56061;51.748;19.620;2022-11-27T09:08:09;189.60;;;73.40;;
69005;SDS011;56061;51.748;19.620;2022-11-27T09:10:39;218.60;;;83.00;;
69005;SDS011;56061;51.748;19.620;2022-11-27T09:13:05;170.80;;;64.00;;
69005;SDS011;56061;51.748;19.620;2022-11-27T09:15:32;156.80;;;60.70;;
69005;SDS011;56061;51.748;19.620;2022-11-27T09:17:58;191.00;;;67.20;;
69005;SDS011;56061;51.748;19.620;2022-11-27T09:20:25;157.30;;;56.80;;
69005;SDS011;56061;51.748;19.620;2022-11-27T09:22:51;101.80;;;43.10;;
69005;SDS011;56061;51.748;19.620;2022-11-27T09:25:17;116.60;;;46.30;;
69005;SDS011;56061;51.748;19.620;2022-11-27T09:27:44;148.30;;;50.70;;
69005;SDS011;56061;51.748;19.620;2022-11-27T09:30:11;93.80;;;37.50;;
69005;SDS011;56061;51.748;19.620;2022-11-27T09:32:37;68.00;;;28.30;;
69005;SDS011;56061;51.748;19.620;2022-11-27T09:35:04;76.10;;;30.90;;
69005;SDS011;56061;51.748;19.620;2022-11-27T09:37:31;93.60;;;38.50;;
69005;SDS011;56061;51.748;19.620;2022-11-27T09:39:58;105.50;;;42.90;;
69005;SDS011;56061;51.748;19.620;2022-11-27T09:42:37;71.90;;;31.60;;
69005;SDS011;56061;51.748;19.620;2022-11-27T09:45:12;70.10;;;31.30;;
69005;SDS011;56061;51.748;19.620;2022-11-27T09:47:46;105.40;;;38.60;;
69005;SDS011;56061;51.748;19.620;2022-11-27T09:50:29;128.40;;;46.00;;
69005;SDS011;56061;51.748;19.620;2022-11-27T09:53:04;116.20;;;40.60;;
69005;SDS011;56061;51.748;19.620;2022-11-27T09:55:43;107.90;;;42.80;;
69005;SDS011;56061;51.748;19.620;2022-11-27T09:58:36;115.40;;;43.60;;
69005;SDS011;56061;51.748;19.620;2022-11-27T10:01:13;124.10;;;49.70;;
69005;SDS011;56061;51.748;19.620;2022-11-27T10:03:43;138.60;;;53.50;;
69005;SDS011;56061;51.748;19.620;2022-11-27T10:06:21;154.70;;;64.70;;
69005;SDS011;56061;51.748;19.620;2022-11-27T10:09:27;160.40;;;60.20;;
69005;SDS011;56061;51.748;19.620;2022-11-27T10:12:28;154.80;;;60.50;;
69005;SDS011;56061;51.748;19.620;2022-11-27T10:15:20;116.00;;;43.70;;
69005;SDS011;56061;51.748;19.620;2022-11-27T10:18:14;109.90;;;41.20;;
69005;SDS011;56061;51.748;19.620;2022-11-27T10:20:58;96.20;;;40.10;;
69005;SDS011;56061;51.748;19.620;2022-11-27T10:26:17;96.90;;;40.20;;
69005;SDS011;56061;51.748;19.620;2022-11-27T10:31:37;65.00;;;28.60;;
69005;SDS011;56061;51.748;19.620;2022-11-27T10:34:36;57.40;;;22.00;;
69005;SDS011;56061;51.748;19.620;2022-11-27T10:37:22;91.90;;;32.10;;
69005;SDS011;56061;51.748;19.620;2022-11-27T10:39:57;74.90;;;30.70;;
69005;SDS011;56061;51.748;19.620;2022-11-27T10:42:32;80.70;;;34.10;;
69005;SDS011;56061;51.748;19.620;2022-11-27T10:45:06;82.90;;;32.40;;
69005;SDS011;56061;51.748;19.620;2022-11-27T10:47:40;72.40;;;29.60;;
69005;SDS011;56061;51.748;19.620;2022-11-27T10:50:17;76.30;;;32.90;;
69005;SDS011;56061;51.748;19.620;2022-11-27T10:52:52;68.50;;;30.50;;
69005;SDS011;56061;51.748;19.620;2022-11-27T10:58:35;93.40;;;40.90;;
69005;SDS011;56061;51.748;19.620;2022-11-27T11:01:15;103.70;;;44.60;;
69005;SDS011;56061;51.748;19.620;2022-11-27T11:03:43;108.10;;;45.40;;
69005;SDS011;56061;51.748;19.620;2022-11-27T11:06:20;129.50;;;49.40;;
69005;SDS011;56061;51.748;19.620;2022-11-27T11:09:03;107.10;;;44.70;;
69005;SDS011;56061;51.748;19.620;2022-11-27T11:11:32;109.20;;;44.90;;
69005;SDS011;56061;51.748;19.620;2022-11-27T11:13:58;121.00;;;48.40;;
69005;SDS011;56061;51.748;19.620;2022-11-27T11:16:27;163.90;;;63.10;;
69005;SDS011;56061;51.748;19.620;2022-11-27T11:19:03;104.20;;;45.00;;
69005;SDS011;56061;51.748;19.620;2022-11-27T11:21:38;121.80;;;46.60;;
69005;SDS011;56061;51.748;19.620;2022-11-27T11:24:20;152.50;;;53.80;;
69005;SDS011;56061;51.748;19.620;2022-11-27T11:26:53;129.30;;;46.30;;
69005;SDS011;56061;51.748;19.620;2022-11-27T11:29:50;109.70;;;44.50;;
69005;SDS011;56061;51.748;19.620;2022-11-27T11:32:30;106.40;;;39.30;;
69005;SDS011;56061;51.748;19.620;2022-11-27T11:35:23;144.10;;;45.10;;
69005;SDS011;56061;51.748;19.620;2022-11-27T11:37:57;129.90;;;45.20;;
69005;SDS011;56061;51.748;19.620;2022-11-27T11:40:29;107.00;;;41.30;;
69005;SDS011;56061;51.748;19.620;2022-11-27T11:43:03;96.60;;;38.90;;
69005;SDS011;56061;51.748;19.620;2022-11-27T11:45:43;104.20;;;42.20;;
69005;SDS011;56061;51.748;19.620;2022-11-27T11:48:24;109.30;;;45.30;;
69005;SDS011;56061;51.748;19.620;2022-11-27T11:50:54;123.90;;;53.40;;
69005;SDS011;56061;51.748;19.620;2022-11-27T11:56:15;194.80;;;62.60;;
69005;SDS011;56061;51.748;19.620;2022-11-27T11:58:57;287.80;;;78.40;;
69005;SDS011;56061;51.748;19.620;2022-11-27T12:01:59;255.10;;;68.40;;
69005;SDS011;56061;51.748;19.620;2022-11-27T12:07:58;257.70;;;66.30;;
69005;SDS011;56061;51.748;19.620;2022-11-27T12:11:04;241.70;;;65.00;;
69005;SDS011;56061;51.748;19.620;2022-11-27T12:16:54;124.50;;;46.10;;
69005;SDS011;56061;51.748;19.620;2022-11-27T12:19:45;92.90;;;36.90;;
69005;SDS011;56061;51.748;19.620;2022-11-27T12:23:02;74.00;;;31.10;;
69005;SDS011;56061;51.748;19.620;2022-11-27T12:34:34;65.80;;;28.30;;
69005;SDS011;56061;51.748;19.620;2022-11-27T12:43:06;55.20;;;27.70;;
69005;SDS011;56061;51.748;19.620;2022-11-27T12:45:41;70.80;;;34.50;;
69005;SDS011;56061;51.748;19.620;2022-11-27T12:48:23;96.50;;;41.50;;
69005;SDS011;56061;51.748;19.620;2022-11-27T12:50:57;71.60;;;33.40;;
69005;SDS011;56061;51.748;19.620;2022-11-27T12:53:38;64.50;;;28.90;;
69005;SDS011;56061;51.748;19.620;2022-11-27T12:56:23;84.00;;;38.40;;
69005;SDS011;56061;51.748;19.620;2022-11-27T13:01:59;102.00;;;45.10;;
69005;SDS011;56061;51.748;19.620;2022-11-27T13:04:42;98.60;;;40.70;;
69005;SDS011;56061;51.748;19.620;2022-11-27T13:07:30;105.50;;;45.40;;
69005;SDS011;56061;51.748;19.620;2022-11-27T13:10:14;85.60;;;38.50;;
69005;SDS011;56061;51.748;19.620;2022-11-27T13:15:47;67.00;;;31.10;;
69005;SDS011;56061;51.748;19.620;2022-11-27T13:18:32;58.80;;;26.30;;
69005;SDS011;56061;51.748;19.620;2022-11-27T13:21:05;66.70;;;28.30;;
69005;SDS011;56061;51.748;19.620;2022-11-27T13:23:36;62.60;;;28.30;;
69005;SDS011;56061;51.748;19.620;2022-11-27T13:26:11;56.10;;;26.90;;
69005;SDS011;56061;51.748;19.620;2022-11-27T13:28:56;59.60;;;27.10;;
69005;SDS011;56061;51.748;19.620;2022-11-27T13:31:27;74.00;;;34.30;;
69005;SDS011;56061;51.748;19.620;2022-11-27T13:34:02;102.00;;;47.40;;
69005;SDS011;56061;51.748;19.620;2022-11-27T13:36:38;91.40;;;44.10;;
69005;SDS011;56061;51.748;19.620;2022-11-27T13:39:28;83.80;;;42.40;;
69005;SDS011;56061;51.748;19.620;2022-11-27T13:42:02;65.60;;;31.00;;
69005;SDS011;56061;51.748;19.620;2022-11-27T13:44:38;76.50;;;37.40;;
69005;SDS011;56061;51.748;19.620;2022-11-27T13:47:13;89.10;;;42.90;;
69005;SDS011;56061;51.748;19.620;2022-11-27T13:49:42;86.50;;;40.90;;
69005;SDS011;56061;51.748;19.620;2022-11-27T13:52:14;77.90;;;35.00;;
69005;SDS011;56061;51.748;19.620;2022-11-27T13:57:19;76.40;;;32.50;;
69005;SDS011;56061;51.748;19.620;2022-11-27T14:02:49;59.20;;;28.90;;
69005;SDS011;56061;51.748;19.620;2022-11-27T14:05:19;60.40;;;28.50;;
69005;SDS011;56061;51.748;19.620;2022-11-27T14:07:50;52.10;;;25.40;;
69005;SDS011;56061;51.748;19.620;2022-11-27T14:10:25;63.40;;;28.20;;
69005;SDS011;56061;51.748;19.620;2022-11-27T14:12:57;60.40;;;28.10;;
69005;SDS011;56061;51.748;19.620;2022-11-27T14:15:30;59.20;;;25.80;;
69005;SDS011;56061;51.748;19.620;2022-11-27T14:18:14;56.30;;;26.90;;
69005;SDS011;56061;51.748;19.620;2022-11-27T14:20:50;54.00;;;25.70;;
69005;SDS011;56061;51.748;19.620;2022-11-27T14:23:52;57.70;;;26.20;;
69005;SDS011;56061;51.748;19.620;2022-11-27T14:26:21;58.60;;;27.40;;
69005;SDS011;56061;51.748;19.620;2022-11-27T14:28:51;63.40;;;30.30;;
69005;SDS011;56061;51.748;19.620;2022-11-27T14:31:25;59.30;;;29.10;;
69005;SDS011;56061;51.748;19.620;2022-11-27T14:33:53;66.40;;;31.90;;
69005;SDS011;56061;51.748;19.620;2022-11-27T14:36:39;68.30;;;32.10;;
69005;SDS011;56061;51.748;19.620;2022-11-27T14:39:06;67.00;;;31.30;;
69005;SDS011;56061;51.748;19.620;2022-11-27T14:41:32;68.70;;;32.20;;
69005;SDS011;56061;51.748;19.620;2022-11-27T14:43:59;71.80;;;31.70;;
69005;SDS011;56061;51.748;19.620;2022-11-27T14:46:27;75.40;;;32.20;;
69005;SDS011;56061;51.748;19.620;2022-11-27T14:48:57;77.70;;;33.70;;
69005;SDS011;56061;51.748;19.620;2022-11-27T14:51:26;107.20;;;45.30;;
69005;SDS011;56061;51.748;19.620;2022-11-27T14:54:08;86.30;;;40.80;;
69005;SDS011;56061;51.748;19.620;2022-11-27T14:56:42;82.30;;;35.40;;
69005;SDS011;56061;51.748;19.620;2022-11-27T14:59:14;76.90;;;34.40;;
69005;SDS011;56061;51.748;19.620;2022-11-27T15:01:43;76.20;;;33.70;;
69005;SDS011;56061;51.748;19.620;2022-11-27T15:04:25;67.50;;;31.80;;
69005;SDS011;56061;51.748;19.620;2022-11-27T15:06:54;61.30;;;29.60;;
69005;SDS011;56061;51.748;19.620;2022-11-27T15:09:25;67.50;;;31.10;;
69005;SDS011;56061;51.748;19.620;2022-11-27T15:12:18;73.30;;;34.00;;
69005;SDS011;56061;51.748;19.620;2022-11-27T15:15:07;70.80;;;35.20;;
69005;SDS011;56061;51.748;19.620;2022-11-27T15:17:43;66.00;;;34.80;;
69005;SDS011;56061;51.748;19.620;2022-11-27T15:20:42;66.60;;;31.80;;
69005;SDS011;56061;51.748;19.620;2022-11-27T15:23:29;64.90;;;31.10;;
69005;SDS011;56061;51.748;19.620;2022-11-27T15:26:07;65.10;;;31.50;;
69005;SDS011;56061;51.748;19.620;2022-11-27T15:28:54;69.90;;;32.30;;
69005;SDS011;56061;51.748;19.620;2022-11-27T15:31:33;71.60;;;32.30;;
69005;SDS011;56061;51.748;19.620;2022-11-27T15:34:21;72.80;;;32.30;;
69005;SDS011;56061;51.748;19.620;2022-11-27T15:36:55;59.20;;;29.10;;